Time;durP1;ratioP1;P1;durP2;ratioP2;P2;SDS_P1;SDS_P2;PMS_P1;PMS_P2;Temp;Humidity;BMP_temperature;BMP_pressure;BME280_temperature;BME280_humidity;BME280_pressure;Samples;Min_cycle;Max_cycle;Signal;HPM_P1;HPM_P2
2022/04/08 00:04:47;;;;;;;7.20;1.27;;;10.80;51.10;;;;;;20932902;28;20207;-66
2022/04/08 00:14:49;;;;;;;4.93;1.40;;;10.70;51.40;;;;;;20932219;28;20253;-67
2022/04/08 00:24:50;;;;;;;3.60;1.13;;;10.70;52.30;;;;;;20924136;28;20212;-69
2022/04/08 00:34:53;;;;;;;3.20;1.30;;;10.50;52.90;;;;;;20925843;28;20613;-67
2022/04/08 00:44:54;;;;;;;4.67;1.47;;;10.60;53.10;;;;;;20926845;28;20208;-68
2022/04/08 00:54:56;;;;;;;4.77;1.60;;;10.50;53.40;;;;;;20930641;28;20820;-67
2022/04/08 01:04:58;;;;;;;7.10;1.70;;;10.50;53.90;;;;;;20927694;28;20326;-65
2022/04/08 01:15:00;;;;;;;4.70;1.53;;;10.40;53.30;;;;;;20924495;28;20234;-65
2022/04/08 01:25:04;;;;;;;5.40;2.37;;;10.30;53.40;;;;;;20922459;28;20290;-66
2022/04/08 01:35:06;;;;;;;4.83;1.50;;;10.30;53.70;;;;;;20926478;28;20594;-65
2022/04/08 01:45:09;;;;;;;5.83;1.80;;;10.30;54.30;;;;;;20921747;28;20211;-66
2022/04/08 01:55:10;;;;;;;4.73;1.87;;;10.20;54.30;;;;;;20932827;28;20244;-67
2022/04/08 02:05:12;;;;;;;7.67;2.10;;;10.20;54.70;;;;;;20936014;28;20329;-66
2022/04/08 02:15:14;;;;;;;7.77;1.63;;;10.10;55.20;;;;;;20925468;28;20242;-65
2022/04/08 02:25:16;;;;;;;7.53;2.40;;;10.00;55.80;;;;;;20855751;28;20207;-66
2022/04/08 02:35:19;;;;;;;6.33;1.97;;;10.00;56.40;;;;;;20836468;28;20248;-66
2022/04/08 02:45:20;;;;;;;4.67;1.63;;;10.00;56.50;;;;;;20837161;28;20216;-66
2022/04/08 02:55:22;;;;;;;5.93;1.90;;;10.00;56.90;;;;;;20835951;28;20295;-66
2022/04/08 03:05:24;;;;;;;4.70;1.70;;;9.90;58.40;;;;;;20838787;28;20207;-66
2022/04/08 03:15:25;;;;;;;6.67;1.90;;;9.90;58.40;;;;;;20830518;28;20235;-65
2022/04/08 03:25:27;;;;;;;5.80;1.60;;;9.90;58.70;;;;;;20829249;28;20216;-63
2022/04/08 03:35:29;;;;;;;4.60;1.63;;;10.00;58.00;;;;;;20828738;28;20596;-65
2022/04/08 03:45:31;;;;;;;6.90;1.80;;;10.00;58.50;;;;;;20828354;28;20663;-65
2022/04/08 03:55:33;;;;;;;7.73;1.80;;;9.90;59.60;;;;;;20827974;28;20421;-64
2022/04/08 04:05:35;;;;;;;8.67;1.70;;;9.90;59.80;;;;;;20829275;28;20226;-69
2022/04/08 04:15:37;;;;;;;10.40;1.80;;;9.80;60.60;;;;;;20827006;28;20234;-66
2022/04/08 04:25:39;;;;;;;12.57;2.00;;;9.90;60.90;;;;;;20826006;28;20212;-65
2022/04/08 04:35:41;;;;;;;6.70;1.97;;;9.70;61.90;;;;;;20825898;28;20342;-65
2022/04/08 04:45:43;;;;;;;8.63;1.93;;;9.70;62.70;;;;;;20834150;28;20216;-65
2022/04/08 04:55:45;;;;;;;7.90;2.13;;;9.70;63.80;;;;;;20840727;28;21328;-65
2022/04/08 05:05:47;;;;;;;6.00;1.67;;;9.30;69.40;;;;;;20840432;28;20218;-66
2022/04/08 05:15:49;;;;;;;7.07;2.00;;;9.10;72.90;;;;;;20838563;28;20241;-66
2022/04/08 05:25:50;;;;;;;6.87;2.13;;;9.20;74.60;;;;;;20863786;28;20212;-64
2022/04/08 05:35:52;;;;;;;7.70;2.00;;;9.30;76.50;;;;;;20917207;28;20338;-65
2022/04/08 05:45:54;;;;;;;10.37;3.20;;;9.30;77.40;;;;;;20835499;28;20674;-63
2022/04/08 05:55:57;;;;;;;5.87;2.60;;;9.50;78.30;;;;;;20869351;28;20268;-65
2022/04/08 06:05:59;;;;;;;8.07;2.47;;;9.50;79.00;;;;;;20915573;28;20206;-65
2022/04/08 06:16:01;;;;;;;5.83;2.13;;;9.70;78.60;;;;;;20912950;28;20234;-62
2022/04/08 06:26:03;;;;;;;6.93;2.10;;;10.00;78.10;;;;;;20912735;28;20208;-62
2022/04/08 06:36:05;;;;;;;6.90;2.27;;;10.10;78.80;;;;;;20919104;28;20353;-66
2022/04/08 06:46:06;;;;;;;8.63;2.50;;;10.20;77.70;;;;;;20903392;28;20214;-64
2022/04/08 06:56:08;;;;;;;14.10;2.60;;;10.30;77.40;;;;;;20829709;28;20235;-64
2022/04/08 07:06:10;;;;;;;9.63;2.30;;;10.30;75.90;;;;;;20857392;28;20592;-63
2022/04/08 07:16:12;;;;;;;8.10;2.47;;;10.40;73.90;;;;;;20878844;28;20658;-64
2022/04/08 07:26:14;;;;;;;6.87;2.20;;;10.50;72.30;;;;;;20827366;28;20262;-69
2022/04/08 07:36:16;;;;;;;9.63;2.27;;;10.70;70.90;;;;;;20827408;28;20270;-66
2022/04/08 07:46:17;;;;;;;5.37;1.90;;;10.90;66.80;;;;;;20861701;28;20207;-68
2022/04/08 07:56:19;;;;;;;7.20;2.20;;;11.00;67.50;;;;;;20907693;28;20293;-64
2022/04/08 08:06:21;;;;;;;6.20;2.27;;;11.20;66.10;;;;;;20904852;28;20223;-66
2022/04/08 08:16:23;;;;;;;11.57;2.40;;;11.20;66.70;;;;;;20861013;28;20233;-67
2022/04/08 08:26:25;;;;;;;9.20;2.77;;;11.50;64.50;;;;;;20838519;28;20311;-64
2022/04/08 08:36:26;;;;;;;11.17;5.13;;;11.50;64.60;;;;;;20839346;28;20244;-68
2022/04/08 08:46:32;;;;;;;10.60;4.23;;;11.60;62.70;;;;;;20844987;28;20209;-66
2022/04/08 08:56:34;;;;;;;8.17;2.27;;;11.70;62.50;;;;;;20920828;28;20246;-66
2022/04/08 09:06:41;;;;;;;8.57;2.80;;;11.60;63.00;;;;;;20965522;28;20210;-64
2022/04/08 09:16:42;;;;;;;5.83;2.13;;;11.70;62.30;;;;;;20885870;28;20600;-66
2022/04/08 09:26:44;;;;;;;9.20;2.60;;;11.70;62.00;;;;;;20836201;28;20344;-65
2022/04/08 09:36:46;;;;;;;9.63;1.90;;;11.60;60.30;;;;;;20860579;28;20268;-65
2022/04/08 09:46:49;;;;;;;6.40;2.27;;;11.70;60.20;;;;;;20846516;28;20217;-65
2022/04/08 09:56:53;;;;;;;5.47;2.00;;;11.50;59.70;;;;;;20888648;28;20245;-67
2022/04/08 10:07:05;;;;;;;6.23;2.03;;;11.20;60.60;;;;;;20882197;28;20214;-66
2022/04/08 10:17:08;;;;;;;6.37;2.00;;;11.10;63.70;;;;;;20936187;28;20779;-69
2022/04/08 10:27:10;;;;;;;6.23;2.30;;;10.90;67.00;;;;;;20914469;28;20219;-67
2022/04/08 10:37:21;;;;;;;6.27;1.83;;;10.70;69.40;;;;;;20913594;28;20240;-64
2022/04/08 10:47:24;;;;;;;6.97;2.87;;;10.60;72.10;;;;;;20912368;28;20200;-68
2022/04/08 10:57:37;;;;;;;5.63;1.70;;;10.40;72.90;;;;;;20911422;28;20724;-65
2022/04/08 11:07:45;;;;;;;5.40;1.70;;;10.30;74.80;;;;;;20911286;28;20209;-62
2022/04/08 11:17:48;;;;;;;5.07;1.80;;;10.30;75.70;;;;;;20911714;28;20242;-64
2022/04/08 11:28:02;;;;;;;7.80;2.20;;;10.20;76.90;;;;;;20917848;28;20216;-66
2022/04/08 11:38:15;;;;;;;4.17;1.73;;;10.30;79.00;;;;;;20910598;28;20238;-67
2022/04/08 11:48:23;;;;;;;2.17;1.20;;;10.30;80.10;;;;;;20907581;28;20207;-63
2022/04/08 11:58:28;;;;;;;1.47;1.17;;;10.30;80.90;;;;;;20922444;28;20274;-64
2022/04/08 12:08:30;;;;;;;3.30;1.97;;;10.30;80.90;;;;;;20924196;28;20621;-66
2022/04/08 12:18:32;;;;;;;2.00;1.50;;;10.20;81.50;;;;;;20924059;28;20236;-64
2022/04/08 12:28:35;;;;;;;1.23;1.10;;;10.20;81.80;;;;;;20923319;28;20266;-65
2022/04/08 12:38:42;;;;;;;1.07;0.90;;;10.20;82.00;;;;;;20922277;28;20243;-64
2022/04/08 12:48:44;;;;;;;1.73;1.03;;;10.00;81.80;;;;;;20922881;28;20242;-64
2022/04/08 12:58:46;;;;;;;2.10;1.00;;;10.00;81.40;;;;;;20921785;28;20242;-67
2022/04/08 13:08:48;;;;;;;1.30;0.90;;;10.00;82.10;;;;;;20920728;28;20215;-69
2022/04/08 13:18:49;;;;;;;2.27;1.23;;;10.00;82.80;;;;;;20920046;28;20630;-62
2022/04/08 13:28:51;;;;;;;1.70;1.10;;;9.80;84.30;;;;;;20919002;28;20244;-66
2022/04/08 13:38:53;;;;;;;2.77;0.90;;;9.80;85.40;;;;;;20877450;28;20728;-64
2022/04/08 13:48:56;;;;;;;3.13;0.97;;;9.70;86.20;;;;;;20847583;28;20207;-70
2022/04/08 13:58:59;;;;;;;1.83;1.07;;;9.70;86.10;;;;;;20916857;28;20689;-68
2022/04/08 14:09:02;;;;;;;2.50;1.70;;;9.50;86.30;;;;;;20917050;28;20654;-66
2022/04/08 14:19:04;;;;;;;1.10;0.80;;;9.50;86.30;;;;;;20915389;28;20342;-73
2022/04/08 14:29:05;;;;;;;2.00;0.80;;;9.50;86.10;;;;;;20916210;28;20292;-60
2022/04/08 14:39:07;;;;;;;1.90;1.00;;;9.20;85.50;;;;;;20875102;28;20250;-69
2022/04/08 14:49:09;;;;;;;0.87;0.73;;;9.20;86.20;;;;;;20913910;28;20209;-68
2022/04/08 14:59:11;;;;;;;1.87;0.80;;;9.00;85.00;;;;;;20862102;28;20230;-68
2022/04/08 15:09:13;;;;;;;1.20;1.10;;;9.00;85.30;;;;;;20913012;28;20573;-65
2022/04/08 15:19:15;;;;;;;2.47;2.20;;;9.00;85.90;;;;;;20912015;28;20299;-64
2022/04/08 15:29:16;;;;;;;1.10;1.00;;;8.90;85.20;;;;;;20880130;28;20200;-73
2022/04/08 15:39:18;;;;;;;1.90;1.20;;;;;;;;;;20836932;28;20250;-73
2022/04/08 15:49:21;;;;;;;0.90;0.90;;;8.60;86.00;;;;;;20911936;28;20209;-67
2022/04/08 15:59:23;;;;;;;2.03;1.40;;;8.70;86.10;;;;;;20913374;28;20231;-65
2022/04/08 16:09:25;;;;;;;4.60;2.93;;;8.50;85.50;;;;;;20914484;28;20241;-73
2022/04/08 16:19:27;;;;;;;2.17;1.17;;;8.40;85.50;;;;;;20911301;28;20596;-72
2022/04/08 16:29:30;;;;;;;9.00;3.97;;;8.10;84.70;;;;;;20884664;28;20202;-63
2022/04/08 16:39:32;;;;;;;1.30;1.20;;;7.90;84.30;;;;;;20913187;28;20695;-74
2022/04/08 16:49:34;;;;;;;1.30;1.20;;;7.60;84.00;;;;;;20924472;28;20200;-71
2022/04/08 16:59:36;;;;;;;3.90;2.87;;;7.60;84.60;;;;;;20926188;28;20236;-76
2022/04/08 17:09:38;;;;;;;2.63;2.20;;;7.30;83.70;;;;;;20922910;28;20204;-74
2022/04/08 17:19:39;;;;;;;3.00;1.83;;;7.30;84.60;;;;;;20923629;28;20235;-74
2022/04/08 17:29:41;;;;;;;3.17;2.47;;;7.10;84.50;;;;;;20887931;28;20216;-61
2022/04/08 17:39:43;;;;;;;2.57;2.20;;;6.80;84.40;;;;;;20837438;28;20726;-63
2022/04/08 17:49:46;;;;;;;5.10;3.37;;;6.80;85.10;;;;;;20837192;28;20201;-63
2022/04/08 17:59:55;;;;;;;2.63;2.33;;;6.70;85.40;;;;;;20850347;28;20411;-66
2022/04/08 18:09:57;;;;;;;3.73;2.53;;;6.50;85.90;;;;;;20835260;28;20619;-71
2022/04/08 18:19:59;;;;;;;4.27;3.40;;;6.50;86.60;;;;;;20847190;28;20231;-69
2022/04/08 18:30:03;;;;;;;3.87;3.00;;;6.50;86.90;;;;;;20913009;28;20379;-69
2022/04/08 18:40:10;;;;;;;5.03;3.10;;;6.50;87.70;;;;;;20914441;28;20604;-66
2022/04/08 18:50:12;;;;;;;3.17;2.83;;;6.60;88.10;;;;;;20912086;28;20219;-64
2022/04/08 19:00:14;;;;;;;7.70;4.50;;;6.50;87.80;;;;;;20872793;28;20293;-66
2022/04/08 19:10:16;;;;;;;5.03;3.60;;;6.60;88.50;;;;;;20913182;28;20208;-64
2022/04/08 19:20:18;;;;;;;4.70;3.67;;;6.60;88.70;;;;;;20838802;28;20251;-70
2022/04/08 19:30:25;;;;;;;7.20;3.97;;;6.50;88.60;;;;;;20829466;28;20610;-64
2022/04/08 19:40:27;;;;;;;6.27;5.00;;;6.50;89.20;;;;;;20866697;28;20247;-64
2022/04/08 19:50:29;;;;;;;7.30;5.50;;;6.40;88.60;;;;;;20905690;28;20214;-68
2022/04/08 20:00:31;;;;;;;6.50;4.90;;;6.10;88.90;;;;;;20907381;28;20242;-69
2022/04/08 20:10:33;;;;;;;6.53;4.63;;;5.90;89.00;;;;;;20907654;28;20297;-70
2022/04/08 20:20:36;;;;;;;9.23;5.43;;;5.90;88.70;;;;;;20923645;28;20239;-71
2022/04/08 20:30:38;;;;;;;6.43;4.80;;;5.70;88.50;;;;;;20923222;28;20239;-68
2022/04/08 20:40:40;;;;;;;5.90;4.70;;;5.60;89.00;;;;;;20921835;28;20245;-63
2022/04/08 20:50:42;;;;;;;6.30;4.90;;;5.50;88.50;;;;;;20921348;28;20207;-65
2022/04/08 21:00:44;;;;;;;5.03;4.33;;;5.40;88.60;;;;;;20921041;28;20236;-62
2022/04/08 21:10:45;;;;;;;4.53;3.57;;;5.10;89.40;;;;;;20919618;28;20315;-65
2022/04/08 21:20:47;;;;;;;4.57;3.47;;;4.60;90.40;;;;;;20919718;28;20241;-65
2022/04/08 21:30:49;;;;;;;8.87;3.60;;;4.50;91.00;;;;;;20919570;28;20212;-66
2022/04/08 21:40:51;;;;;;;6.10;2.93;;;4.60;91.30;;;;;;20919460;28;20243;-65
2022/04/08 21:51:13;;;;;;;3.20;2.50;;;4.60;91.60;;;;;;20867604;28;20262;-70
2022/04/08 22:01:15;;;;;;;2.90;2.20;;;4.60;91.90;;;;;;20835102;28;20659;-72
2022/04/08 22:11:17;;;;;;;3.30;2.60;;;4.50;92.00;;;;;;20908100;28;20244;-70
2022/04/08 22:21:22;;;;;;;6.77;3.20;;;4.40;92.30;;;;;;20916907;28;20249;-69
2022/04/08 22:31:24;;;;;;;4.90;2.43;;;4.40;92.30;;;;;;20916525;28;20611;-62
2022/04/08 22:41:26;;;;;;;3.27;2.50;;;4.20;92.50;;;;;;20914059;28;20275;-66
2022/04/08 22:51:34;;;;;;;4.90;2.77;;;4.00;93.00;;;;;;20914612;28;20293;-64
2022/04/08 23:01:36;;;;;;;4.70;2.77;;;4.00;93.40;;;;;;20914338;28;20245;-64
2022/04/08 23:11:38;;;;;;;3.73;2.30;;;3.90;93.60;;;;;;20913100;28;20246;-66
2022/04/08 23:21:40;;;;;;;4.17;2.37;;;4.00;94.00;;;;;;20914706;28;20235;-65
2022/04/08 23:31:41;;;;;;;2.70;1.87;;;4.00;94.20;;;;;;20915703;28;20206;-63
2022/04/08 23:41:44;;;;;;;2.17;1.97;;;4.00;94.40;;;;;;20911455;28;20243;-64
2022/04/08 23:51:46;;;;;;;2.83;2.00;;;4.10;94.70;;;;;;20861952;28;20215;-69
